createdAt,value
2023-05-13T00:00:42.199Z,27.75
2023-05-13T00:01:42.260Z,27.76
2023-05-13T00:02:42.415Z,27.76
2023-05-13T00:03:42.485Z,27.75
2023-05-13T00:04:42.439Z,27.75
2023-05-13T00:05:42.510Z,27.76
2023-05-13T00:06:42.572Z,27.76
2023-05-13T00:07:42.632Z,27.75
2023-05-13T00:08:42.684Z,27.75
2023-05-13T00:09:42.731Z,27.78
2023-05-13T00:10:42.813Z,27.76
2023-05-13T00:11:42.861Z,27.75
2023-05-13T00:12:42.926Z,27.75
2023-05-13T00:13:42.967Z,27.76
2023-05-13T00:14:43.066Z,27.75
2023-05-13T00:15:43.124Z,27.76
2023-05-13T00:16:43.264Z,27.75
2023-05-13T00:17:43.301Z,27.75
2023-05-13T00:18:43.308Z,27.75
2023-05-13T00:19:43.326Z,27.76
2023-05-13T00:20:43.437Z,27.76
2023-05-13T00:21:43.475Z,27.73
2023-05-13T00:22:43.545Z,27.75
2023-05-13T00:23:43.603Z,27.75
2023-05-13T00:24:43.650Z,27.76
2023-05-13T00:25:43.697Z,27.73
2023-05-13T00:26:43.775Z,27.75
2023-05-13T00:27:43.851Z,27.75
2023-05-13T00:28:43.918Z,27.75
2023-05-13T00:29:43.934Z,27.72
2023-05-13T00:30:44.014Z,27.76
2023-05-13T00:31:44.141Z,27.75
2023-05-13T00:32:44.134Z,27.73
2023-05-13T00:33:44.196Z,27.73
2023-05-13T00:34:44.225Z,27.73
2023-05-13T00:35:44.290Z,27.75
2023-05-13T00:36:44.393Z,27.75
2023-05-13T00:37:44.419Z,27.72
2023-05-13T00:38:44.491Z,27.73
2023-05-13T00:39:44.519Z,27.75
2023-05-13T00:40:44.592Z,27.73
2023-05-13T00:41:44.647Z,27.75
2023-05-13T00:42:44.724Z,27.73
2023-05-13T00:43:44.757Z,27.75
2023-05-13T00:44:44.848Z,27.72
2023-05-13T00:45:44.945Z,27.72
2023-05-13T00:46:44.983Z,27.73
2023-05-13T00:47:45.048Z,27.75
2023-05-13T00:48:45.089Z,27.73
2023-05-13T00:49:45.126Z,27.70
2023-05-13T00:50:45.213Z,27.75
2023-05-13T00:51:45.274Z,27.72
2023-05-13T00:52:45.317Z,27.72
2023-05-13T00:53:45.358Z,27.72
2023-05-13T00:54:45.445Z,27.75
2023-05-13T00:55:45.517Z,27.73
2023-05-13T00:56:45.560Z,27.72
2023-05-13T00:57:45.642Z,27.73
2023-05-13T00:58:45.690Z,27.72
2023-05-13T00:59:45.710Z,27.72
2023-05-13T01:00:45.811Z,27.70
2023-05-13T01:01:45.864Z,27.70
2023-05-13T01:02:45.934Z,27.75
2023-05-13T01:03:45.979Z,27.70
2023-05-13T01:04:46.012Z,27.72
2023-05-13T01:05:46.075Z,27.72
2023-05-13T01:06:46.120Z,27.70
2023-05-13T01:07:46.190Z,27.70
2023-05-13T01:08:46.242Z,27.73
2023-05-13T01:09:46.333Z,27.70
2023-05-13T01:10:46.397Z,27.70
2023-05-13T01:11:46.435Z,27.70
2023-05-13T01:12:46.509Z,27.72
2023-05-13T01:13:46.581Z,27.73
2023-05-13T01:14:46.663Z,27.70
2023-05-13T01:15:46.695Z,27.69
2023-05-13T01:16:46.784Z,27.72
2023-05-13T01:17:47.757Z,27.72
2023-05-13T01:18:46.948Z,27.70
2023-05-13T01:19:46.923Z,27.72
2023-05-13T01:20:47.000Z,27.73
2023-05-13T01:21:47.045Z,27.72
2023-05-13T01:22:47.106Z,27.70
2023-05-13T01:23:47.133Z,27.72
2023-05-13T01:24:47.205Z,27.72
2023-05-13T01:25:47.236Z,27.70
2023-05-13T01:26:47.322Z,27.69
2023-05-13T01:27:47.362Z,27.72
2023-05-13T01:28:47.411Z,27.72
2023-05-13T01:29:47.444Z,27.70
2023-05-13T01:30:47.474Z,27.72
2023-05-13T01:31:47.554Z,27.72
2023-05-13T01:32:47.662Z,27.70
2023-05-13T01:33:47.645Z,27.69
2023-05-13T01:34:47.653Z,27.70
2023-05-13T01:35:47.690Z,27.70
2023-05-13T01:36:47.763Z,27.68
2023-05-13T01:37:47.804Z,27.70
2023-05-13T01:38:47.835Z,27.69
2023-05-13T01:39:48.710Z,27.68
2023-05-13T01:40:47.926Z,27.68
2023-05-13T01:41:47.993Z,27.70
2023-05-13T01:42:48.031Z,27.69
2023-05-13T01:43:48.054Z,27.69
2023-05-13T01:44:48.119Z,27.69
2023-05-13T01:45:48.133Z,27.73
2023-05-13T01:46:48.277Z,27.69
2023-05-13T01:47:48.252Z,27.70
2023-05-13T01:48:48.318Z,27.68
2023-05-13T01:49:48.298Z,27.69
2023-05-13T01:50:48.330Z,27.68
2023-05-13T01:51:48.405Z,27.69
2023-05-13T01:52:48.504Z,27.68
2023-05-13T01:53:48.460Z,27.69
2023-05-13T01:54:48.476Z,27.69
2023-05-13T01:55:48.533Z,27.69
2023-05-13T01:56:48.583Z,27.69
2023-05-13T01:57:48.605Z,27.69
2023-05-13T01:58:48.619Z,27.70
2023-05-13T01:59:48.678Z,27.68
2023-05-13T02:00:48.696Z,27.69
2023-05-13T02:01:48.784Z,27.68
2023-05-13T02:02:48.934Z,27.69
2023-05-13T02:03:48.862Z,27.66
2023-05-13T02:04:48.855Z,27.69
2023-05-13T02:05:48.907Z,27.65
2023-05-13T02:06:48.945Z,27.68
2023-05-13T02:07:48.967Z,27.66
2023-05-13T02:08:49.037Z,27.69
2023-05-13T02:09:49.078Z,27.69
2023-05-13T02:10:49.088Z,27.70
2023-05-13T02:11:49.129Z,27.66
2023-05-13T02:12:49.203Z,27.66
2023-05-13T02:13:49.245Z,27.68
2023-05-13T02:14:49.294Z,27.66
2023-05-13T02:15:49.355Z,27.68
2023-05-13T02:16:49.539Z,27.66
2023-05-13T02:17:49.562Z,27.68
2023-05-13T02:18:49.505Z,27.68
2023-05-13T02:19:49.544Z,27.66
2023-05-13T02:20:49.609Z,27.69
2023-05-13T02:21:49.645Z,27.66
2023-05-13T02:22:49.700Z,27.69
2023-05-13T02:23:49.724Z,27.66
2023-05-13T02:24:49.778Z,27.68
2023-05-13T02:25:49.832Z,27.66
2023-05-13T02:26:49.847Z,27.68
2023-05-13T02:27:49.908Z,27.68
2023-05-13T02:28:49.977Z,27.66
2023-05-13T02:29:50.021Z,27.68
2023-05-13T02:30:50.070Z,27.69
2023-05-13T02:31:50.123Z,27.66
2023-05-13T02:32:50.192Z,27.68
2023-05-13T02:33:50.173Z,27.66
2023-05-13T02:34:50.232Z,27.66
2023-05-13T02:35:50.334Z,27.63
2023-05-13T02:36:50.335Z,27.65
2023-05-13T02:37:50.339Z,27.66
2023-05-13T02:38:50.387Z,27.68
2023-05-13T02:39:50.399Z,27.66
2023-05-13T02:40:50.446Z,27.65
2023-05-13T02:41:50.495Z,27.65
2023-05-13T02:42:50.570Z,27.68
2023-05-13T02:43:50.606Z,27.63
2023-05-13T02:44:50.649Z,27.66
2023-05-13T02:45:50.755Z,27.63
2023-05-13T02:46:50.773Z,27.66
2023-05-13T02:47:50.895Z,27.66
2023-05-13T02:48:50.927Z,27.68
2023-05-13T02:49:50.946Z,27.66
2023-05-13T02:50:51.054Z,27.65
2023-05-13T02:51:51.032Z,27.66
2023-05-13T02:52:51.062Z,27.65
2023-05-13T02:53:51.138Z,27.66
2023-05-13T02:54:51.196Z,27.65
2023-05-13T02:55:51.215Z,27.66
2023-05-13T02:56:51.249Z,27.63
2023-05-13T02:57:51.293Z,27.65
2023-05-13T02:58:51.318Z,27.65
2023-05-13T02:59:51.418Z,27.66
2023-05-13T03:00:51.408Z,27.66
2023-05-13T03:01:51.654Z,27.63
2023-05-13T03:02:51.535Z,27.65
2023-05-13T03:03:51.520Z,27.65
2023-05-13T03:04:51.571Z,27.63
2023-05-13T03:05:51.606Z,27.63
2023-05-13T03:06:51.664Z,27.63
2023-05-13T03:07:51.692Z,27.65
2023-05-13T03:08:51.722Z,27.65
2023-05-13T03:09:51.775Z,27.65
2023-05-13T03:10:51.786Z,27.65
2023-05-13T03:11:51.838Z,27.65
2023-05-13T03:12:51.850Z,27.65
2023-05-13T03:13:51.863Z,27.63
2023-05-13T03:14:51.895Z,27.65
2023-05-13T03:15:51.947Z,27.63
2023-05-13T03:16:51.980Z,27.65
2023-05-13T03:17:52.026Z,27.65
2023-05-13T03:18:52.047Z,27.62
2023-05-13T03:19:52.000Z,27.65
2023-05-13T03:20:52.075Z,27.65
2023-05-13T03:21:52.068Z,27.63
2023-05-13T03:22:52.094Z,27.65
2023-05-13T03:23:52.127Z,27.63
2023-05-13T03:24:52.191Z,27.62
2023-05-13T03:25:52.212Z,27.62
2023-05-13T03:26:52.226Z,27.60
2023-05-13T03:27:52.245Z,27.63
2023-05-13T03:28:52.287Z,27.60
2023-05-13T03:29:52.335Z,27.60
2023-05-13T03:30:52.447Z,27.63
2023-05-13T03:31:52.509Z,27.62
2023-05-13T03:32:52.501Z,27.62
2023-05-13T03:33:52.523Z,27.63
2023-05-13T03:34:52.584Z,27.60
2023-05-13T03:35:52.647Z,27.65
2023-05-13T03:36:52.689Z,27.65
2023-05-13T03:37:52.758Z,27.63
2023-05-13T03:38:52.800Z,27.63
2023-05-13T03:39:52.836Z,27.59
2023-05-13T03:40:52.861Z,27.63
2023-05-13T03:41:52.942Z,27.63
2023-05-13T03:42:52.968Z,27.63
2023-05-13T03:43:53.045Z,27.62
2023-05-13T03:44:53.055Z,27.62
2023-05-13T03:45:53.130Z,27.65
2023-05-13T03:46:53.169Z,27.62
2023-05-13T03:47:53.229Z,27.63
2023-05-13T03:48:53.232Z,27.60
2023-05-13T03:49:53.273Z,27.62
2023-05-13T03:50:53.323Z,27.62
2023-05-13T03:51:53.345Z,27.65
2023-05-13T03:52:53.390Z,27.62
2023-05-13T03:53:53.423Z,27.62
2023-05-13T03:54:53.418Z,27.59
2023-05-13T03:55:53.476Z,27.63
2023-05-13T03:56:53.498Z,27.62
2023-05-13T03:57:53.560Z,27.65
2023-05-13T03:58:53.582Z,27.62
2023-05-13T03:59:53.625Z,27.62
2023-05-13T04:00:53.657Z,27.63
2023-05-13T04:01:53.754Z,27.62
2023-05-13T04:02:53.825Z,27.62
2023-05-13T04:03:53.733Z,27.62
2023-05-13T04:04:53.817Z,27.60
2023-05-13T04:05:53.772Z,27.63
2023-05-13T04:06:53.823Z,27.62
2023-05-13T04:07:53.874Z,27.62
2023-05-13T04:08:53.887Z,27.62
2023-05-13T04:09:53.892Z,27.62
2023-05-13T04:10:53.911Z,27.63
2023-05-13T04:11:53.953Z,27.63
2023-05-13T04:12:53.976Z,27.59
2023-05-13T04:13:53.994Z,27.62
2023-05-13T04:14:54.020Z,27.60
2023-05-13T04:15:54.054Z,27.63
2023-05-13T04:16:54.109Z,27.60
2023-05-13T04:17:54.186Z,27.59
2023-05-13T04:18:54.202Z,27.60
2023-05-13T04:19:54.202Z,27.62
2023-05-13T04:20:54.236Z,27.60
2023-05-13T04:21:54.261Z,27.60
2023-05-13T04:22:54.290Z,27.62
2023-05-13T04:23:54.321Z,27.59
2023-05-13T04:24:54.347Z,27.62
2023-05-13T04:25:54.365Z,27.63
2023-05-13T04:26:54.369Z,27.60
2023-05-13T04:27:54.365Z,27.62
2023-05-13T04:28:54.398Z,27.60
2023-05-13T04:29:54.360Z,27.62
2023-05-13T04:30:54.434Z,27.62
2023-05-13T04:31:54.413Z,27.60
2023-05-13T04:32:54.421Z,27.62
2023-05-13T04:33:54.413Z,27.63
2023-05-13T04:34:54.444Z,27.60
2023-05-13T04:35:54.433Z,27.62
2023-05-13T04:36:54.440Z,27.62
2023-05-13T04:37:54.461Z,27.62
2023-05-13T04:38:54.443Z,27.62
2023-05-13T04:39:54.479Z,27.62
2023-05-13T04:40:54.550Z,27.62
2023-05-13T04:41:54.497Z,27.59
2023-05-13T04:42:54.492Z,27.60
2023-05-13T04:43:54.467Z,27.62
2023-05-13T04:44:55.298Z,27.60
2023-05-13T04:45:54.518Z,27.60
2023-05-13T04:46:54.581Z,27.63
2023-05-13T04:47:56.191Z,27.60
2023-05-13T04:48:54.459Z,27.63
2023-05-13T04:49:54.479Z,27.62
2023-05-13T04:50:54.457Z,27.60
2023-05-13T04:51:54.421Z,27.60
2023-05-13T04:52:54.431Z,27.60
2023-05-13T04:53:54.440Z,27.60
2023-05-13T04:54:54.427Z,27.62
2023-05-13T04:55:54.427Z,27.59
2023-05-13T04:56:54.394Z,27.63
2023-05-13T04:57:54.400Z,27.62
2023-05-13T04:58:54.388Z,27.62
2023-05-13T04:59:54.405Z,27.63
2023-05-13T05:00:54.403Z,27.60
2023-05-13T05:01:54.473Z,27.62
2023-05-13T05:02:54.442Z,27.60
2023-05-13T05:03:54.396Z,27.60
2023-05-13T05:04:54.336Z,27.58
2023-05-13T05:05:54.363Z,27.60
2023-05-13T05:06:54.335Z,27.60
2023-05-13T05:07:54.336Z,27.60
2023-05-13T05:08:54.321Z,27.60
2023-05-13T05:09:54.324Z,27.60
2023-05-13T05:10:54.325Z,27.59
2023-05-13T05:11:54.333Z,27.60
2023-05-13T05:12:54.322Z,27.59
2023-05-13T05:13:54.270Z,27.62
2023-05-13T05:14:54.302Z,27.62
2023-05-13T05:15:54.297Z,27.62
2023-05-13T05:16:54.306Z,27.60
2023-05-13T05:17:54.345Z,27.63
2023-05-13T05:18:54.287Z,27.60
2023-05-13T05:19:54.271Z,27.63
2023-05-13T05:20:54.227Z,27.60
2023-05-13T05:21:54.278Z,27.63
2023-05-13T05:22:54.207Z,27.60
2023-05-13T05:23:54.212Z,27.65
2023-05-13T05:24:54.232Z,27.60
2023-05-13T05:26:04.083Z,27.63
2023-05-13T05:26:55.230Z,27.62
2023-05-13T05:27:54.167Z,27.63
2023-05-13T05:28:54.226Z,27.62
2023-05-13T05:29:54.177Z,27.62
2023-05-13T05:30:54.190Z,27.63
2023-05-13T05:31:54.184Z,27.62
2023-05-13T05:32:54.202Z,27.59
2023-05-13T05:33:54.169Z,27.65
2023-05-13T05:34:54.162Z,27.63
2023-05-13T05:35:54.167Z,27.63
2023-05-13T05:36:54.164Z,27.63
2023-05-13T05:37:54.233Z,27.63
2023-05-13T05:38:54.279Z,27.63
2023-05-13T05:39:54.309Z,27.65
2023-05-13T05:40:54.354Z,27.65
2023-05-13T05:41:54.422Z,27.65
2023-05-13T05:42:54.430Z,27.63
2023-05-13T05:43:54.542Z,27.62
2023-05-13T05:44:54.548Z,27.65
2023-05-13T05:45:54.604Z,27.65
2023-05-13T05:46:54.598Z,27.65
2023-05-13T05:47:54.656Z,27.65
2023-05-13T05:48:54.653Z,27.63
2023-05-13T05:49:54.674Z,27.68
2023-05-13T05:50:54.725Z,27.63
2023-05-13T05:51:54.740Z,27.63
2023-05-13T05:52:54.818Z,27.66
2023-05-13T05:53:54.824Z,27.68
2023-05-13T05:54:54.835Z,27.65
2023-05-13T05:55:54.922Z,27.66
2023-05-13T05:56:54.924Z,27.65
2023-05-13T05:57:54.943Z,27.66
2023-05-13T05:58:54.954Z,27.66
2023-05-13T05:59:55.018Z,27.66
2023-05-13T06:00:55.075Z,27.65
2023-05-13T06:01:55.157Z,27.68
2023-05-13T06:02:55.213Z,27.65
2023-05-13T06:03:55.298Z,27.65
2023-05-13T06:04:55.253Z,27.65
2023-05-13T06:05:55.310Z,27.68
2023-05-13T06:06:55.367Z,27.66
2023-05-13T06:07:55.414Z,27.66
2023-05-13T06:08:55.480Z,27.68
2023-05-13T06:09:55.532Z,27.68
2023-05-13T06:10:55.576Z,27.65
2023-05-13T06:11:55.596Z,27.68
2023-05-13T06:12:55.679Z,27.68
2023-05-13T06:13:55.748Z,27.68
2023-05-13T06:14:55.750Z,27.66
2023-05-13T06:15:55.867Z,27.68
2023-05-13T06:16:56.057Z,27.69
2023-05-13T06:17:55.989Z,27.69
2023-05-13T06:18:56.078Z,27.68
2023-05-13T06:19:56.017Z,27.68
2023-05-13T06:20:56.059Z,27.69
2023-05-13T06:21:56.142Z,27.68
2023-05-13T06:22:56.181Z,27.70
2023-05-13T06:23:56.222Z,27.70
2023-05-13T06:24:56.293Z,27.69
2023-05-13T06:25:56.353Z,27.68
2023-05-13T06:26:56.862Z,27.69
2023-05-13T06:27:56.459Z,27.72
2023-05-13T06:28:56.536Z,27.66
2023-05-13T06:29:56.584Z,27.66
2023-05-13T06:30:56.731Z,27.70
2023-05-13T06:31:56.706Z,27.70
2023-05-13T06:33:01.485Z,27.70
2023-05-13T06:33:57.756Z,27.69
2023-05-13T06:34:56.745Z,27.72
2023-05-13T06:35:56.727Z,27.70
2023-05-13T06:36:56.721Z,27.69
2023-05-13T06:37:56.721Z,27.70
2023-05-13T06:38:56.693Z,27.70
2023-05-13T06:39:56.684Z,27.72
2023-05-13T06:40:56.696Z,27.72
2023-05-13T06:41:56.684Z,27.72
2023-05-13T06:42:56.732Z,27.72
2023-05-13T06:43:56.779Z,27.73
2023-05-13T06:44:56.852Z,27.70
2023-05-13T06:45:56.895Z,27.73
2023-05-13T06:46:57.036Z,27.73
2023-05-13T06:47:57.023Z,27.75
2023-05-13T06:48:57.101Z,27.73
2023-05-13T06:49:57.147Z,27.75
2023-05-13T06:50:57.181Z,27.75
2023-05-13T06:51:57.268Z,27.76
2023-05-13T06:52:57.320Z,27.73
2023-05-13T06:53:57.395Z,27.75
2023-05-13T06:54:57.425Z,27.73
2023-05-13T06:55:57.506Z,27.76
2023-05-13T06:56:57.553Z,27.76
2023-05-13T06:57:57.609Z,27.78
2023-05-13T06:58:57.681Z,27.76
2023-05-13T06:59:57.717Z,27.76
2023-05-13T07:00:57.826Z,27.78
2023-05-13T07:01:57.841Z,27.79
2023-05-13T07:02:57.928Z,27.78
2023-05-13T07:03:57.992Z,27.79
2023-05-13T07:04:57.994Z,27.82
2023-05-13T07:05:58.096Z,27.80
2023-05-13T07:06:58.118Z,27.82
2023-05-13T07:07:58.200Z,27.82
2023-05-13T07:08:58.253Z,27.83
2023-05-13T07:09:58.291Z,27.85
2023-05-13T07:10:58.359Z,27.85
2023-05-13T07:11:58.391Z,27.82
2023-05-13T07:12:58.442Z,27.85
2023-05-13T07:13:58.500Z,27.85
2023-05-13T07:14:58.569Z,27.88
2023-05-13T07:15:58.628Z,27.85
2023-05-13T07:16:58.717Z,27.88
2023-05-13T07:17:58.726Z,27.86
2023-05-13T07:18:58.816Z,27.85
2023-05-13T07:19:58.809Z,27.86
2023-05-13T07:20:58.876Z,27.86
2023-05-13T07:21:58.937Z,27.89
2023-05-13T07:22:58.980Z,27.83
2023-05-13T07:23:59.010Z,27.88
2023-05-13T07:24:59.055Z,27.88
2023-05-13T07:25:59.115Z,27.85
2023-05-13T07:26:59.172Z,27.86
2023-05-13T07:27:59.230Z,27.86
2023-05-13T07:28:59.295Z,27.85
2023-05-13T07:29:59.354Z,27.89
2023-05-13T07:30:59.452Z,27.88
2023-05-13T07:31:59.450Z,27.88
2023-05-13T07:32:59.496Z,27.86
2023-05-13T07:33:59.532Z,27.85
2023-05-13T07:34:59.580Z,27.88
2023-05-13T07:35:59.627Z,27.88
2023-05-13T07:36:59.658Z,27.88
2023-05-13T07:37:59.717Z,27.88
2023-05-13T07:38:59.774Z,27.89
2023-05-13T07:39:59.784Z,27.89
2023-05-13T07:40:59.893Z,27.88
2023-05-13T07:41:59.935Z,27.89
2023-05-13T07:42:59.926Z,27.90
2023-05-13T07:44:00.017Z,27.90
2023-05-13T07:45:00.098Z,27.89
2023-05-13T07:46:00.134Z,27.89
2023-05-13T07:47:00.245Z,27.90
2023-05-13T07:48:00.278Z,27.90
2023-05-13T07:49:00.252Z,27.89
2023-05-13T07:50:00.318Z,27.95
2023-05-13T07:51:00.897Z,27.93
2023-05-13T07:52:00.394Z,27.93
2023-05-13T07:53:00.454Z,27.93
2023-05-13T07:54:00.470Z,27.92
2023-05-13T07:55:00.500Z,27.93
2023-05-13T07:56:00.558Z,27.93
2023-05-13T07:57:00.615Z,27.93
2023-05-13T07:58:00.627Z,27.93
2023-05-13T07:59:00.655Z,27.93
2023-05-13T08:00:00.723Z,27.96
2023-05-13T08:01:00.775Z,27.96
2023-05-13T08:02:00.793Z,27.96
2023-05-13T08:03:00.904Z,27.99
2023-05-13T08:04:01.107Z,27.99
2023-05-13T08:05:00.885Z,27.99
2023-05-13T08:06:00.970Z,28.01
2023-05-13T08:07:00.976Z,28.01
2023-05-13T08:08:01.020Z,28.00
2023-05-13T08:09:01.064Z,28.01
2023-05-13T08:10:01.060Z,28.01
2023-05-13T08:11:01.117Z,28.01
2023-05-13T08:12:01.133Z,28.04
2023-05-13T08:13:01.173Z,28.01
2023-05-13T08:14:01.189Z,28.04
2023-05-13T08:15:01.257Z,28.06
2023-05-13T08:16:01.287Z,28.04
2023-05-13T08:17:01.302Z,28.04
2023-05-13T08:18:01.419Z,28.06
2023-05-13T08:19:01.359Z,28.06
2023-05-13T08:20:01.358Z,28.06
2023-05-13T08:21:01.419Z,28.06
2023-05-13T08:22:01.446Z,28.09
2023-05-13T08:23:01.434Z,28.11
2023-05-13T08:24:01.513Z,28.10
2023-05-13T08:25:01.507Z,28.10
2023-05-13T08:26:01.526Z,28.07
2023-05-13T08:27:01.533Z,28.10
2023-05-13T08:28:01.635Z,28.10
2023-05-13T08:29:01.610Z,28.13
2023-05-13T08:30:01.638Z,28.11
2023-05-13T08:31:01.651Z,28.13
2023-05-13T08:32:01.728Z,28.13
2023-05-13T08:33:01.693Z,28.14
2023-05-13T08:34:01.744Z,28.16
2023-05-13T08:35:01.739Z,28.16
2023-05-13T08:36:01.770Z,28.19
2023-05-13T08:37:01.806Z,28.17
2023-05-13T08:38:01.824Z,28.16
2023-05-13T08:39:01.811Z,28.20
2023-05-13T08:40:01.869Z,28.21
2023-05-13T08:41:01.865Z,28.23
2023-05-13T08:42:01.904Z,28.24
2023-05-13T08:43:01.894Z,28.26
2023-05-13T08:44:01.923Z,28.23
2023-05-13T08:45:02.011Z,28.26
2023-05-13T08:46:02.049Z,28.27
2023-05-13T08:47:02.009Z,28.28
2023-05-13T08:48:02.036Z,28.30
2023-05-13T08:49:02.000Z,28.33
2023-05-13T08:50:02.048Z,28.34
2023-05-13T08:51:02.106Z,28.36
2023-05-13T08:52:02.065Z,28.41
2023-05-13T08:53:02.060Z,28.40
2023-05-13T08:54:02.042Z,28.41
2023-05-13T08:55:02.041Z,28.46
2023-05-13T08:56:02.149Z,28.44
2023-05-13T08:57:02.146Z,28.46
2023-05-13T08:58:02.113Z,28.47
2023-05-13T08:59:02.158Z,28.48
2023-05-13T09:00:02.140Z,28.47
2023-05-13T09:01:02.138Z,28.50
2023-05-13T09:02:02.158Z,28.48
2023-05-13T09:03:02.275Z,28.52
2023-05-13T09:04:02.337Z,28.54
2023-05-13T09:05:02.450Z,28.55
2023-05-13T09:06:02.471Z,28.61
2023-05-13T09:07:02.518Z,28.65
2023-05-13T09:08:02.533Z,28.65
2023-05-13T09:09:02.599Z,28.65
2023-05-13T09:10:02.627Z,28.68
2023-05-13T09:11:02.724Z,28.68
2023-05-13T09:12:02.773Z,28.68
2023-05-13T09:13:02.838Z,28.72
2023-05-13T09:14:02.893Z,28.72
2023-05-13T09:15:02.964Z,28.72
2023-05-13T09:16:03.086Z,28.71
2023-05-13T09:17:03.071Z,28.72
2023-05-13T09:18:03.220Z,28.74
2023-05-13T09:19:03.282Z,28.74
2023-05-13T09:20:03.294Z,28.77
2023-05-13T09:21:03.339Z,28.78
2023-05-13T09:22:03.407Z,28.78
2023-05-13T09:23:03.444Z,28.79
2023-05-13T09:24:03.511Z,28.79
2023-05-13T09:25:03.544Z,28.79
2023-05-13T09:26:03.622Z,28.79
2023-05-13T09:27:03.700Z,28.85
2023-05-13T09:28:03.698Z,28.90
2023-05-13T09:29:03.845Z,28.90
2023-05-13T09:30:03.828Z,28.91
2023-05-13T09:31:03.892Z,28.91
2023-05-13T09:32:03.917Z,28.88
2023-05-13T09:33:03.959Z,28.90
2023-05-13T09:34:03.988Z,28.88
2023-05-13T09:35:04.055Z,28.88
2023-05-13T09:36:04.108Z,28.91
2023-05-13T09:37:04.148Z,28.91
2023-05-13T09:38:04.199Z,28.91
2023-05-13T09:39:04.239Z,28.92
2023-05-13T09:40:04.284Z,28.94
2023-05-13T09:41:04.312Z,28.95
2023-05-13T09:42:05.425Z,28.97
2023-05-13T09:43:04.378Z,28.97
2023-05-13T09:44:04.451Z,29.01
2023-05-13T09:45:04.474Z,29.02
2023-05-13T09:46:04.506Z,29.02
2023-05-13T09:47:04.562Z,29.02
2023-05-13T09:48:04.620Z,29.02
2023-05-13T09:49:04.603Z,29.08
2023-05-13T09:50:04.657Z,29.08
2023-05-13T09:51:04.667Z,29.09
2023-05-13T09:52:04.682Z,29.13
2023-05-13T09:53:04.745Z,29.15
2023-05-13T09:54:04.782Z,29.16
2023-05-13T09:55:04.842Z,29.15
2023-05-13T09:56:04.835Z,29.18
2023-05-13T09:57:04.858Z,29.21
2023-05-13T09:58:04.897Z,29.22
2023-05-13T09:59:04.981Z,29.21
2023-05-13T10:00:04.985Z,29.15
2023-05-13T10:01:04.986Z,29.15
2023-05-13T10:02:05.011Z,29.19
2023-05-13T10:03:05.137Z,29.22
2023-05-13T10:04:05.115Z,29.19
2023-05-13T10:05:05.113Z,29.23
2023-05-13T10:06:05.146Z,29.21
2023-05-13T10:07:05.236Z,29.21
2023-05-13T10:08:05.187Z,29.21
2023-05-13T10:09:05.344Z,29.21
2023-05-13T10:10:05.253Z,29.19
2023-05-13T10:11:05.292Z,29.19
2023-05-13T10:12:05.334Z,29.21
2023-05-13T10:13:05.348Z,29.19
2023-05-13T10:14:05.386Z,29.21
2023-05-13T10:15:05.395Z,29.18
2023-05-13T10:16:05.491Z,29.21
2023-05-13T10:17:05.562Z,29.21
2023-05-13T10:18:07.564Z,29.21
2023-05-13T10:19:05.600Z,29.22
2023-05-13T10:20:05.564Z,29.18
2023-05-13T10:21:05.607Z,29.19
2023-05-13T10:22:05.633Z,29.18
2023-05-13T10:23:05.661Z,29.19
2023-05-13T10:24:05.711Z,29.19
2023-05-13T10:25:05.751Z,29.21
2023-05-13T10:26:05.776Z,29.19
2023-05-13T10:27:05.792Z,29.19
2023-05-13T10:28:05.876Z,29.18
2023-05-13T10:29:05.860Z,29.19
2023-05-13T10:30:05.928Z,29.18
2023-05-13T10:31:05.922Z,29.19
2023-05-13T10:32:06.018Z,29.18
2023-05-13T10:33:06.017Z,29.21
2023-05-13T10:34:06.012Z,29.19
2023-05-13T10:35:06.082Z,29.19
2023-05-13T10:36:06.086Z,29.18
2023-05-13T10:37:06.125Z,29.16
2023-05-13T10:38:06.169Z,29.16
2023-05-13T10:39:06.207Z,29.12
2023-05-13T10:40:06.216Z,29.15
2023-05-13T10:41:06.291Z,29.18
2023-05-13T10:42:06.291Z,29.16
2023-05-13T10:43:06.328Z,29.16
2023-05-13T10:44:06.936Z,29.15
2023-05-13T10:45:06.388Z,29.13
2023-05-13T10:46:06.473Z,29.12
2023-05-13T10:47:06.469Z,29.13
2023-05-13T10:48:06.557Z,29.12
2023-05-13T10:49:06.548Z,29.13
2023-05-13T10:50:06.542Z,29.09
2023-05-13T10:51:06.578Z,29.08
2023-05-13T10:52:06.622Z,29.11
2023-05-13T10:53:06.665Z,29.11
2023-05-13T10:54:06.700Z,29.08
2023-05-13T10:55:06.711Z,29.08
2023-05-13T10:56:06.763Z,29.08
2023-05-13T10:57:06.769Z,29.08
2023-05-13T10:58:06.789Z,29.06
2023-05-13T10:59:06.845Z,29.05
2023-05-13T11:00:06.876Z,29.03
2023-05-13T11:01:06.925Z,29.05
2023-05-13T11:02:07.026Z,29.01
2023-05-13T11:03:07.027Z,28.99
2023-05-13T11:04:07.119Z,28.98
2023-05-13T11:05:07.027Z,28.98
2023-05-13T11:06:07.053Z,28.98
2023-05-13T11:07:07.128Z,28.95
2023-05-13T11:08:07.150Z,28.97
2023-05-13T11:09:07.186Z,28.94
2023-05-13T11:10:07.246Z,28.95
2023-05-13T11:11:07.301Z,28.92
2023-05-13T11:12:07.323Z,28.94
2023-05-13T11:13:07.382Z,28.92
2023-05-13T11:14:08.556Z,28.92
2023-05-13T11:15:07.467Z,28.91
2023-05-13T11:16:07.551Z,28.92
2023-05-13T11:17:07.542Z,28.88
2023-05-13T11:18:07.675Z,28.88
2023-05-13T11:19:07.788Z,28.90
2023-05-13T11:20:07.704Z,28.88
2023-05-13T11:21:07.731Z,28.88
2023-05-13T11:22:07.792Z,28.87
2023-05-13T11:23:07.867Z,28.85
2023-05-13T11:24:07.887Z,28.84
2023-05-13T11:25:07.948Z,28.87
2023-05-13T11:26:09.948Z,28.85
2023-05-13T11:27:08.029Z,28.84
2023-05-13T11:28:07.977Z,28.82
2023-05-13T11:29:07.999Z,28.81
2023-05-13T11:30:07.988Z,28.81
2023-05-13T11:31:08.026Z,28.81
2023-05-13T11:32:07.967Z,28.79
2023-05-13T11:33:08.125Z,28.81
2023-05-13T11:34:07.952Z,28.79
2023-05-13T11:35:07.922Z,28.81
2023-05-13T11:36:07.919Z,28.79
2023-05-13T11:37:07.937Z,28.79
2023-05-13T11:38:07.927Z,28.81
2023-05-13T11:39:07.910Z,28.79
2023-05-13T11:40:07.899Z,28.81
2023-05-13T11:41:07.909Z,28.78
2023-05-13T11:42:07.895Z,28.79
2023-05-13T11:43:07.871Z,28.78
2023-05-13T11:44:07.901Z,28.78
2023-05-13T11:45:07.868Z,28.78
2023-05-13T11:46:07.948Z,28.78
2023-05-13T11:47:07.877Z,28.77
2023-05-13T11:48:07.863Z,28.79
2023-05-13T11:49:07.836Z,28.78
2023-05-13T11:50:07.863Z,28.78
2023-05-13T11:51:07.809Z,28.81
2023-05-13T11:52:07.832Z,28.84
2023-05-13T11:53:07.810Z,28.85
2023-05-13T11:54:07.814Z,28.84
2023-05-13T11:55:07.792Z,28.88
2023-05-13T11:56:07.798Z,28.88
2023-05-13T11:57:07.822Z,28.90
2023-05-13T11:58:07.790Z,28.90
2023-05-13T11:59:07.784Z,28.92
2023-05-13T12:00:07.797Z,28.90
2023-05-13T12:01:07.771Z,28.92
2023-05-13T12:02:07.923Z,28.92
2023-05-13T12:03:07.935Z,28.94
2023-05-13T12:04:07.769Z,28.94
2023-05-13T12:05:07.910Z,28.94
2023-05-13T12:06:07.869Z,28.94
2023-05-13T12:07:07.905Z,28.94
2023-05-13T12:08:07.958Z,28.94
2023-05-13T12:09:07.998Z,28.91
2023-05-13T12:10:08.031Z,28.92
2023-05-13T12:11:08.097Z,28.94
2023-05-13T12:12:08.140Z,28.91
2023-05-13T12:13:08.196Z,28.88
2023-05-13T12:14:08.255Z,28.87
2023-05-13T12:15:08.296Z,28.88
2023-05-13T12:16:08.413Z,28.87
2023-05-13T12:17:08.419Z,28.87
2023-05-13T12:18:08.592Z,28.88
2023-05-13T12:19:08.633Z,28.90
2023-05-13T12:20:08.602Z,28.91
2023-05-13T12:21:08.643Z,28.91
2023-05-13T12:22:08.711Z,28.92
2023-05-13T12:23:08.753Z,28.90
2023-05-13T12:24:08.785Z,28.90
2023-05-13T12:25:08.820Z,28.92
2023-05-13T12:26:08.839Z,28.88
2023-05-13T12:27:11.408Z,28.90
2023-05-13T12:28:08.887Z,28.91
2023-05-13T12:29:08.910Z,28.91
2023-05-13T12:30:08.893Z,28.91
2023-05-13T12:31:08.902Z,28.94
2023-05-13T12:32:08.879Z,28.94
2023-05-13T12:33:08.910Z,28.88
2023-05-13T12:34:08.837Z,28.91
2023-05-13T12:35:08.836Z,28.91
2023-05-13T12:36:08.848Z,28.91
2023-05-13T12:37:08.905Z,28.90
2023-05-13T12:38:08.828Z,28.91
2023-05-13T12:39:08.865Z,28.90
2023-05-13T12:40:08.816Z,28.90
2023-05-13T12:41:08.821Z,28.88
2023-05-13T12:42:08.826Z,28.88
2023-05-13T12:43:08.792Z,28.90
2023-05-13T12:44:08.828Z,28.90
2023-05-13T12:45:08.787Z,28.87
2023-05-13T12:46:08.775Z,28.88
2023-05-13T12:47:08.797Z,28.85
2023-05-13T12:48:08.799Z,28.87
2023-05-13T12:49:08.739Z,28.87
2023-05-13T12:50:08.759Z,28.85
2023-05-13T12:51:08.712Z,28.85
2023-05-13T12:52:08.743Z,28.88
2023-05-13T12:53:08.853Z,28.84